首页
METAR-TAF:

METAR-TAF

机场 :

庫內奧, 意大利

纬度: 44-32-47N, 经度: 007-37-20E, 海拔: 386米

当前天气观测

该预报发布于1小时和10分钟前的14:50 UTC
风速3节,风向,在北转东北之间变化
温度 26°C
湿度 32%
气压 1000 hPa
能见度10公里或以上
1500米以下无云,无积雨云

METAR: LIMZ 051450Z 09003KT 030V170 CAVOK 26/08 Q1000

时间: 18:00 (16:00 UTC)

预报

该预报发布于5小时和0分钟前的11:00 UTC
预报有效从05日的 12点(UTC)到 06日的 12点(UTC)
风速5节,风向多变
能見度: 7000
散云层高于2000英尺

TAF: LIMZ 051100Z 0512/0612 VRB05KT 7000 SCT020

超过4000个机场的气象观测和天气预报(METAR&TAF报告)。

可查询的气象台以黄色和红色小点在地图上表示。

将鼠标移到小点上方,可查看气象台名称。

然后点击查看天气观测和预报。

如需切换地图:点击带黑十字的绿色按钮放大地图;点击带横线的绿色按钮缩小地图;或者点击绿色箭头查看邻近地区的地图。


METAR-TAF: